createdAt,value
2022-12-18T00:00:01.520Z,94.16
2022-12-18T00:05:01.798Z,94.11
2022-12-18T00:10:01.985Z,94.11
2022-12-18T00:15:01.359Z,94.03
2022-12-18T00:20:01.547Z,93.89
2022-12-18T00:25:01.306Z,93.53
2022-12-18T00:30:01.289Z,93.29
2022-12-18T00:35:02.030Z,93.08
2022-12-18T00:40:01.758Z,92.96
2022-12-18T00:45:01.739Z,92.9
2022-12-18T00:50:01.454Z,93.35
2022-12-18T00:55:05.967Z,93.16
2022-12-18T01:00:01.885Z,93.03
2022-12-18T01:05:01.564Z,92.74
2022-12-18T01:10:01.676Z,92.48
2022-12-18T01:15:01.988Z,92.44
2022-12-18T01:20:01.692Z,92.25
2022-12-18T01:25:01.665Z,91.94
2022-12-18T01:30:01.634Z,91.82
2022-12-18T01:35:01.647Z,91.86
2022-12-18T01:40:01.445Z,91.83
2022-12-18T01:45:02.246Z,91.97
2022-12-18T01:50:02.158Z,92.03
2022-12-18T01:55:01.961Z,92.1
2022-12-18T02:00:02.157Z,92.07
2022-12-18T02:05:01.612Z,92.05
2022-12-18T02:10:01.834Z,92.11
2022-12-18T02:15:01.962Z,92.03
2022-12-18T02:20:01.850Z,92.1
2022-12-18T02:25:01.935Z,92.18
2022-12-18T02:30:02.105Z,92.13
2022-12-18T02:35:02.226Z,92
2022-12-18T02:40:01.662Z,91.85
2022-12-18T02:45:01.450Z,91.99
2022-12-18T02:50:01.612Z,91.89
2022-12-18T02:55:01.664Z,91.97
2022-12-18T03:00:01.437Z,91.94
2022-12-18T03:05:01.381Z,91.87
2022-12-18T03:10:01.654Z,91.93
2022-12-18T03:15:01.686Z,92.11
2022-12-18T03:20:01.762Z,92.11
2022-12-18T03:25:01.902Z,92.19
2022-12-18T03:30:01.513Z,92.14
2022-12-18T03:35:01.652Z,92.16
2022-12-18T03:40:01.538Z,92.28
2022-12-18T03:45:01.990Z,92.38
2022-12-18T03:50:02.251Z,92.61
2022-12-18T03:55:01.332Z,92.77
2022-12-18T04:00:01.500Z,92.9
2022-12-18T04:05:01.759Z,92.99
2022-12-18T04:10:01.494Z,92.92
2022-12-18T04:15:01.991Z,92.9
2022-12-18T04:20:02.037Z,92.79
2022-12-18T04:25:01.310Z,92.74
2022-12-18T04:30:01.900Z,92.56
2022-12-18T04:35:01.793Z,92.67
2022-12-18T04:40:02.245Z,92.77
2022-12-18T04:45:01.307Z,92.9
2022-12-18T04:50:01.669Z,93.06
2022-12-18T04:55:01.863Z,93.19
2022-12-18T05:00:01.992Z,93.36
2022-12-18T05:05:01.609Z,93.35
2022-12-18T05:10:01.634Z,93.33
2022-12-18T05:15:01.514Z,93.49
2022-12-18T05:20:01.588Z,93.54
2022-12-18T05:25:01.796Z,93.74
2022-12-18T05:30:01.940Z,93.72
2022-12-18T05:35:01.831Z,93.64
2022-12-18T05:40:01.462Z,93.83
2022-12-18T05:45:01.970Z,93.8
2022-12-18T05:50:01.965Z,93.72
2022-12-18T05:55:01.750Z,93.69
2022-12-18T06:00:01.427Z,93.92
2022-12-18T06:05:01.732Z,93.74
2022-12-18T06:10:02.198Z,93.72
2022-12-18T06:15:02.069Z,93.69
2022-12-18T06:20:02.030Z,93.67
2022-12-18T06:25:01.399Z,93.73
2022-12-18T06:30:01.357Z,93.79
2022-12-18T06:35:01.900Z,93.84
2022-12-18T06:40:01.750Z,93.8
2022-12-18T06:45:01.904Z,93.94
2022-12-18T06:50:01.904Z,93.87
2022-12-18T06:55:01.730Z,94.09
2022-12-18T07:00:01.820Z,93.88
2022-12-18T07:05:06.064Z,93.83
2022-12-18T07:10:02.133Z,93.8
2022-12-18T07:15:02.031Z,93.8
2022-12-18T07:20:01.616Z,93.7
2022-12-18T07:25:01.760Z,93.5
2022-12-18T07:30:01.906Z,93.46
2022-12-18T07:35:02.263Z,93.53
2022-12-18T07:40:01.798Z,93.67
2022-12-18T07:45:01.780Z,93.66
2022-12-18T07:50:01.775Z,93.6
2022-12-18T07:55:01.561Z,93.6
2022-12-18T08:00:01.542Z,93.42
2022-12-18T08:05:01.922Z,93.35
2022-12-18T08:10:02.121Z,93.01
2022-12-18T08:15:02.182Z,93.09
2022-12-18T08:20:02.034Z,92.87
2022-12-18T08:25:01.789Z,92.62
2022-12-18T08:30:01.454Z,92.58
2022-12-18T08:35:01.871Z,92.31
2022-12-18T08:40:02.161Z,91.71
2022-12-18T08:45:01.728Z,91.52
2022-12-18T08:50:01.594Z,91.01
2022-12-18T08:55:01.622Z,90.75
2022-12-18T09:00:01.583Z,90.71
2022-12-18T09:05:02.173Z,90.42
2022-12-18T09:10:01.910Z,90.34
2022-12-18T09:15:01.684Z,90.27
2022-12-18T09:20:02.100Z,89.97
2022-12-18T09:25:01.995Z,90
2022-12-18T09:30:01.785Z,89.71
2022-12-18T09:35:01.676Z,89.5
2022-12-18T09:40:01.873Z,89.13
2022-12-18T09:45:02.156Z,88.94
2022-12-18T09:50:01.907Z,88.83
2022-12-18T09:55:02.008Z,89.2
2022-12-18T10:00:02.068Z,89.23
2022-12-18T10:05:01.906Z,89.08
2022-12-18T10:10:02.194Z,88.88
2022-12-18T10:15:01.558Z,88.89
2022-12-18T10:20:01.810Z,88.86
2022-12-18T10:25:01.858Z,88.79
2022-12-18T10:30:01.994Z,88.99
2022-12-18T10:35:02.161Z,88.39
2022-12-18T10:40:01.275Z,88.1
2022-12-18T10:45:01.737Z,87.99
2022-12-18T10:50:01.996Z,87.99
2022-12-18T10:55:01.794Z,87.92
2022-12-18T11:00:01.781Z,87.87
2022-12-18T11:05:01.975Z,87.45
2022-12-18T11:10:02.208Z,87.52
2022-12-18T11:15:02.120Z,87.68
2022-12-18T11:20:02.003Z,87.56
2022-12-18T11:25:30.978Z,87.56
2022-12-18T11:30:01.937Z,87.35
2022-12-18T11:35:01.773Z,87.27
2022-12-18T11:40:02.151Z,87.14
2022-12-18T11:45:02.130Z,87.17
2022-12-18T11:50:02.096Z,87.25
2022-12-18T11:55:02.239Z,87.36
2022-12-18T12:00:01.396Z,87.45
2022-12-18T12:05:01.781Z,87.53
2022-12-18T12:10:01.412Z,87.76
2022-12-18T12:15:01.898Z,87.66
2022-12-18T12:20:02.029Z,87.57
2022-12-18T12:25:01.509Z,87.52
2022-12-18T12:30:01.756Z,87.36
2022-12-18T12:35:07.754Z,87.71
2022-12-18T12:40:11.054Z,87.78
2022-12-18T12:45:02.087Z,87.94
2022-12-18T12:50:01.391Z,87.93
2022-12-18T12:55:01.985Z,88.02
2022-12-18T13:00:02.099Z,87.97
2022-12-18T13:05:01.427Z,87.69
2022-12-18T13:10:01.638Z,87.65
2022-12-18T13:15:01.750Z,87.45
2022-12-18T13:20:01.927Z,87.26
2022-12-18T13:25:02.241Z,87.12
2022-12-18T13:30:01.465Z,86.96
2022-12-18T13:35:01.989Z,86.9
2022-12-18T13:40:01.370Z,86.63
2022-12-18T13:45:01.323Z,86.53
2022-12-18T13:50:01.854Z,86.63
2022-12-18T13:55:01.767Z,86.44
2022-12-18T14:00:01.921Z,86.66
2022-12-18T14:05:02.104Z,86.91
2022-12-18T14:10:18.877Z,87.09
2022-12-18T14:15:01.320Z,87.17
2022-12-18T14:20:01.723Z,87.34
2022-12-18T14:25:01.821Z,87.58
2022-12-18T14:30:01.963Z,87.43
2022-12-18T14:35:02.155Z,87.33
2022-12-18T14:40:08.683Z,87.37
2022-12-18T14:45:14.350Z,87.46
2022-12-18T14:50:02.203Z,87.52
2022-12-18T14:55:02.124Z,87.61
2022-12-18T15:00:02.225Z,87.69
2022-12-18T15:05:01.770Z,87.66
2022-12-18T15:10:01.874Z,87.72
2022-12-18T15:15:01.958Z,87.65
2022-12-18T15:20:01.469Z,87.63
2022-12-18T15:25:01.937Z,87.59
2022-12-18T15:30:01.326Z,87.64
2022-12-18T15:35:02.233Z,87.91
2022-12-18T15:40:01.455Z,88.08
2022-12-18T15:45:01.895Z,88.06
2022-12-18T15:50:01.599Z,88.14
2022-12-18T15:55:01.694Z,88.33
2022-12-18T16:00:02.015Z,88.43
2022-12-18T16:05:02.250Z,88.49
2022-12-18T16:10:02.425Z,88.62
2022-12-18T16:15:02.040Z,88.62
2022-12-18T16:20:02.014Z,89.12
2022-12-18T16:25:02.017Z,89.43
2022-12-18T16:30:01.899Z,89.62
2022-12-18T16:35:02.340Z,89.77
2022-12-18T16:40:01.399Z,89.86
2022-12-18T16:45:01.701Z,90.11
2022-12-18T16:50:02.175Z,90.52
2022-12-18T16:55:01.450Z,90.42
2022-12-18T17:00:05.446Z,90.64
2022-12-18T17:05:02.188Z,90.84
2022-12-18T17:10:02.247Z,90.87
2022-12-18T17:15:01.456Z,90.96
2022-12-18T17:20:02.047Z,91.01
2022-12-18T17:25:02.007Z,91.08
2022-12-18T17:30:01.336Z,91.11
2022-12-18T17:35:06.945Z,91.1
2022-12-18T17:40:02.232Z,91.28
2022-12-18T17:45:02.217Z,91.26
2022-12-18T17:50:01.551Z,91.26
2022-12-18T17:55:01.804Z,91.22
2022-12-18T18:00:01.908Z,91.43
2022-12-18T18:05:02.187Z,91.44
2022-12-18T18:10:02.412Z,91.64
2022-12-18T18:15:01.554Z,91.57
2022-12-18T18:20:01.457Z,91.65
2022-12-18T18:25:01.768Z,91.78
2022-12-18T18:30:01.847Z,91.74
2022-12-18T18:35:01.957Z,91.9
2022-12-18T18:40:02.560Z,91.88
2022-12-18T18:45:02.040Z,91.9
2022-12-18T18:50:02.193Z,91.61
2022-12-18T18:55:12.257Z,91.74
2022-12-18T19:00:01.440Z,91.48
2022-12-18T19:05:02.181Z,91.42
2022-12-18T19:10:04.767Z,91.46
2022-12-18T19:15:02.070Z,91.6
2022-12-18T19:20:01.524Z,91.55
2022-12-18T19:25:02.052Z,91.39
2022-12-18T19:30:02.157Z,91.56
2022-12-18T19:35:01.487Z,91.37
2022-12-18T19:40:02.455Z,91.37
2022-12-18T19:45:02.039Z,91.27
2022-12-18T19:50:01.553Z,91.54
2022-12-18T19:55:01.805Z,91.46
2022-12-18T20:00:01.726Z,91.55
2022-12-18T20:05:01.841Z,91.77
2022-12-18T20:10:08.615Z,91.51
2022-12-18T20:15:02.224Z,91.46
2022-12-18T20:20:02.088Z,91.26
2022-12-18T20:25:02.165Z,91.06
2022-12-18T20:30:01.998Z,91.05
2022-12-18T20:35:03.993Z,91.17
2022-12-18T20:40:01.519Z,90.84
2022-12-18T20:45:01.528Z,90.76
2022-12-18T20:50:02.131Z,90.65
2022-12-18T20:55:02.282Z,90.74
2022-12-18T21:00:02.306Z,90.81
2022-12-18T21:05:01.370Z,91.04
2022-12-18T21:10:01.740Z,91.28
2022-12-18T21:15:01.824Z,91.64
2022-12-18T21:20:01.372Z,91.87
2022-12-18T21:25:02.001Z,92.67
2022-12-18T21:30:01.910Z,93.66
2022-12-18T21:35:01.769Z,94.25
2022-12-18T21:40:02.607Z,95.11
2022-12-18T21:45:02.129Z,95.93
2022-12-18T21:50:02.175Z,96.19
2022-12-18T21:55:08.605Z,96.07
2022-12-18T22:00:02.203Z,96.78
2022-12-18T22:05:01.708Z,97.16
2022-12-18T22:10:02.372Z,97.34
2022-12-18T22:15:02.040Z,97.82
2022-12-18T22:20:01.986Z,97.47
2022-12-18T22:25:02.062Z,97.76
2022-12-18T22:30:01.871Z,97.8
2022-12-18T22:35:07.914Z,97.61
2022-12-18T22:40:03.218Z,97.79
2022-12-18T22:45:02.264Z,97.79
2022-12-18T22:50:01.348Z,97.61
2022-12-18T22:55:03.700Z,97.65
2022-12-18T23:00:23.864Z,97.44
2022-12-18T23:05:02.758Z,97.02
2022-12-18T23:10:01.823Z,97.18
2022-12-18T23:15:02.004Z,96.66
2022-12-18T23:20:01.268Z,96.6
2022-12-18T23:25:01.456Z,96.54
2022-12-18T23:30:01.844Z,96.59
2022-12-18T23:35:01.365Z,96.95
2022-12-18T23:40:01.554Z,97.47
2022-12-18T23:45:01.655Z,97.86
2022-12-18T23:50:01.685Z,96.63
2022-12-18T23:55:01.499Z,97.11
